• Join FlightAware (Why Join?)
  • Login
  • US Flag 
03:50PM EDT


 

Airport Tracker/Info


-or-


 

Live Flight TrackerFlight Track Log ✈ N525HB ✈ 23-Oct-2013 ✈ KSTP - KRDU

Flight Track Log - Related Links

Times and Time Zones

All times are in EDT time to prevent confusion due to time zone crossing. See the N525HB flight status page for this flight to view local times or setup timezone preferences in your user account.

Time Position Orientation Groundspeed Altitude Reporting Facility
EDT Latitude Longitude Course Direction KTS MPH feet Rate Location/Type
10:00PM 44.9500 -93.0833 35° Northeast 162 186 1,600  Level Minneapolis TRACON
10:01PM 45.0000 -93.0333 35° Northeast 251 289 4,300 2,760 Climbing Minneapolis TRACON
10:03PM 44.9728 -92.9308 111° Southeast 273 314 8,300 2,940 Climbing Minneapolis Center
10:04PM 44.9061 -92.8714 148° Southeast 281 323 11,200 2,700 Climbing Minneapolis Center
10:05PM 44.8278 -92.8136 152° Southeast 313 360 13,800 2,460 Climbing Minneapolis Center
10:06PM 44.7397 -92.7675 160° South 337 388 16,300 2,340 Climbing Minneapolis Center
10:07PM 44.6453 -92.7386 168° South 344 396 18,600 2,220 Climbing Minneapolis Center
10:08PM 44.5494 -92.7111 168° South 348 400 20,900 2,220 Climbing Minneapolis Center
10:09PM 44.4686 -92.6411 148° Southeast 361 415 23,200 1,980 Climbing Minneapolis Center
10:10PM 44.4139 -92.5242 123° Southeast 360 414 25,000 1,680 Climbing Minneapolis Center
10:11PM 44.3589 -92.4044 123° Southeast 365 420 26,700 1,560 Climbing Minneapolis Center
10:12PM 44.3050 -92.2828 122° Southeast 369 425 28,200 1,380 Climbing Minneapolis Center
10:13PM 44.2492 -92.1589 122° Southeast 374 430 29,600 1,200 Climbing Minneapolis Center
10:14PM 44.1914 -92.0333 123° Southeast 382 440 30,700 1,080 Climbing Minneapolis Center
10:15PM 44.1186 -91.8825 124° Southeast 389 448 31,900 960 Climbing Minneapolis Center
10:16PM 44.0583 -91.7539 123° Southeast 395 455 32,700 540 Climbing Minneapolis Center
10:17PM 44.0050 -91.6375 122° Southeast 401 461 33,000 120 Climbing Minneapolis Center
10:18PM 43.9417 -91.5022 123° Southeast 413 475 33,000  Level Minneapolis Center
10:19PM 43.8606 -91.3308 123° Southeast 436 502 33,000  Level Minneapolis Center
10:20PM 43.7925 -91.1858 123° Southeast 445 512 33,000  Level Minneapolis Center
10:21PM 43.7233 -91.0381 123° Southeast 450 518 33,000  Level Minneapolis Center
10:22PM 43.6547 -90.8956 124° Southeast 451 519 33,000  Level Minneapolis Center
10:23PM 43.5853 -90.7506 123° Southeast 453 521 33,000  Level Minneapolis Center
10:24PM 43.5147 -90.6053 124° Southeast 456 525 33,000  Level Minneapolis Center
10:25PM 43.4428 -90.4578 124° Southeast 459 528 33,000  Level Minneapolis Center
10:26PM 43.3717 -90.3153 124° Southeast 459 528 33,000  Level Minneapolis Center
10:27PM 43.3039 -90.1747 123° Southeast 451 519 33,000  Level Minneapolis Center
10:28PM 43.2200 -90.0022 124° Southeast 452 520 33,000  Level Minneapolis Center
10:29PM 43.1494 -89.8594 124° Southeast 454 522 33,000  Level Minneapolis Center
10:30PM 43.0772 -89.7181 125° Southeast 456 525 33,000  Level Minneapolis Center
10:31PM 43.0072 -89.5758 124° Southeast 455 524 33,000  Level Minneapolis Center
10:32PM 42.9056 -89.3772 125° Southeast 455 524 33,000  Level Chicago Center
10:33PM 42.8336 -89.2361 125° Southeast 457 526 33,000  Level Chicago Center
10:35PM 42.7617 -89.0942 125° Southeast 458 527 33,000  Level Chicago Center
10:36PM 42.6903 -88.9550 125° Southeast 455 524 33,000  Level Chicago Center
10:37PM 42.6186 -88.8142 125° Southeast 455 524 33,000  Level Chicago Center
10:38PM 42.5453 -88.6731 125° Southeast 458 527 33,000  Level Chicago Center
10:39PM 42.4583 -88.5050 125° Southeast 459 528 33,000  Level Chicago Center
10:40PM 42.3853 -88.3639 125° Southeast 459 528 33,000  Level Chicago Center
10:41PM 42.3181 -88.2381 126° Southeast 457 526 33,000  Level Chicago Center
10:42PM 42.2453 -88.0975 125° Southeast 456 525 33,000  Level Chicago Center
10:43PM 42.1703 -87.9583 126° Southeast 459 528 33,000  Level Chicago Center
10:44PM 42.0808 -87.7903 126° Southeast 460 529 33,000  Level Chicago Center
10:45PM 42.0064 -87.6511 126° Southeast 459 528 33,000  Level Chicago Center
10:46PM 41.9308 -87.5103 126° Southeast 462 532 33,000  Level Chicago Center
10:47PM 41.8539 -87.3683 126° Southeast 468 539 33,000  Level Chicago Center
10:48PM 41.7786 -87.2281 126° Southeast 464 534 33,000  Level Chicago Center
10:49PM 41.7031 -87.0900 126° Southeast 461 531 33,000  Level Chicago Center
10:50PM 41.6267 -86.9508 126° Southeast 463 533 33,000  Level Chicago Center
10:51PM 41.5508 -86.8131 126° Southeast 462 532 33,000  Level Chicago Center
10:52PM 41.4672 -86.6608 126° Southeast 464 534 33,000  Level Chicago Center
10:53PM 41.3911 -86.5242 127° Southeast 461 531 33,000  Level Chicago Center
10:54PM 41.3150 -86.3858 126° Southeast 464 534 33,000  Level Chicago Center
10:55PM 41.2378 -86.2489 127° Southeast 466 536 33,000  Level Chicago Center
10:56PM 41.1614 -86.1125 127° Southeast 465 535 33,000  Level Chicago Center
10:57PM 41.0839 -85.9767 127° Southeast 466 536 33,000  Level Chicago Center
10:58PM 41.0067 -85.8411 127° Southeast 465 535 33,000  Level Chicago Center
10:59PM 40.9303 -85.7058 127° Southeast 464 534 33,000  Level Chicago Center
11:00PM 40.8364 -85.5439 127° Southeast 466 536 33,000  Level Chicago Center
11:01PM 40.7592 -85.4078 127° Southeast 466 536 33,000  Level Chicago Center
11:02PM 40.6808 -85.2692 127° Southeast 473 544 33,000  Level Chicago Center
11:03PM 40.6097 -85.1483 128° Southeast 463 533 33,000  Level Chicago Center
11:04PM 40.5450 -85.0375 128° Southeast 466 536 33,000  Level Indianapolis Center
11:05PM 40.4656 -84.9039 128° Southeast 467 537 33,000  Level Indianapolis Center
11:06PM 40.3919 -84.7747 127° Southeast 465 535 33,000  Level Indianapolis Center
11:07PM 40.3125 -84.6417 128° Southeast 464 534 33,000  Level Indianapolis Center
11:08PM 40.2336 -84.5067 127° Southeast 467 537 33,000  Level Indianapolis Center
11:09PM 40.1542 -84.3744 128° Southeast 465 535 33,000  Level Indianapolis Center
11:10PM 40.0589 -84.2153 128° Southeast 466 536 33,000  Level Indianapolis Center
11:11PM 39.9800 -84.0825 128° Southeast 464 534 33,000  Level Indianapolis Center
11:12PM 39.8994 -83.9517 129° Southeast 465 535 33,000  Level Indianapolis Center
11:13PM 39.8211 -83.8203 128° Southeast 465 535 33,000  Level Indianapolis Center
11:14PM 39.7425 -83.6903 128° Southeast 465 535 33,000  Level Indianapolis Center
11:15PM 39.6644 -83.5614 128° Southeast 465 535 33,000  Level Indianapolis Center
11:16PM 39.5844 -83.4325 129° Southeast 466 536 33,000  Level Indianapolis Center
11:17PM 39.4875 -83.2761 129° Southeast 468 539 33,000  Level Indianapolis Center
11:18PM 39.4064 -83.1456 129° Southeast 467 537 33,000  Level Indianapolis Center
11:19PM 39.3258 -83.0147 128° Southeast 468 539 33,000  Level Indianapolis Center
11:20PM 39.2442 -82.8833 129° Southeast 470 541 33,000  Level Indianapolis Center
11:21PM 39.1561 -82.7428 129° Southeast 465 535 33,000  Level Indianapolis Center
11:22PM 39.0761 -82.6128 128° Southeast 462 532 33,000  Level Indianapolis Center
11:23PM 38.9942 -82.4872 130° Southeast 459 528 33,000  Level Indianapolis Center
11:24PM 38.9128 -82.3589 129° Southeast 462 532 33,000  Level Indianapolis Center
11:25PM 38.8303 -82.2294 129° Southeast 466 536 33,000  Level Indianapolis Center
11:26PM 38.7489 -82.1000 129° Southeast 466 536 33,000  Level Indianapolis Center
11:27PM 38.6667 -81.9725 130° Southeast 466 536 33,000  Level Indianapolis Center
11:28PM 38.5853 -81.8458 129° Southeast 465 535 33,000  Level Indianapolis Center
11:29PM 38.5039 -81.7206 130° Southeast 464 534 33,000 -60 Level Indianapolis Center
11:30PM 38.4217 -81.5953 130° Southeast 466 536 32,900 -600 Descending Indianapolis Center
11:31PM 38.3233 -81.4439 130° Southeast 463 533 31,800 -1,080 Descending Indianapolis Center
11:32PM 38.2397 -81.3167 130° Southeast 468 539 30,800 -1,020 Descending Indianapolis Center
11:33PM 38.1581 -81.1942 130° Southeast 457 526 29,800 -840 Descending Indianapolis Center
11:34PM 38.0767 -81.0700 130° Southeast 458 527 29,100 -420 Descending Indianapolis Center
11:35PM 37.9939 -80.9469 130° Southeast 457 526 29,000 -60 Descending Indianapolis Center
11:36PM 37.9122 -80.8231 130° Southeast 458 527 29,000  Level Indianapolis Center
11:37PM 37.8283 -80.6986 130° Southeast 461 531 29,000  Level Indianapolis Center
11:38PM 37.7522 -80.5875 131° Southeast 452 520 29,000  Level Washington Center
11:39PM 37.6717 -80.4667 130° Southeast 452 520 29,000  Level Washington Center
11:40PM 37.5869 -80.3433 131° Southeast 452 520 29,000  Level Washington Center
11:41PM 37.5042 -80.2203 130° Southeast 452 520 29,000  Level Washington Center
11:42PM 37.4308 -80.1139 131° Southeast 452 520 29,000  Level Washington Center
11:43PM 37.3411 -80.0067 136° Southeast 447 514 29,000 -720 Level Washington Center
11:44PM 37.2528 -79.9078 138° Southeast 436 502 27,700 -1,800 Descending Washington Center
11:45PM 37.1586 -79.8008 138° Southeast 422 486 25,400 -2,160 Descending Washington Center
11:46PM 37.0767 -79.7025 136° Southeast 417 480 23,400 -1,980 Descending Washington Center
11:47PM 36.9942 -79.6097 138° Southeast 412 474 21,500 -1,980 Descending Washington Center
11:48PM 36.9139 -79.5144 136° Southeast 406 467 19,500 -1,920 Descending Washington Center
11:49PM 36.8372 -79.4303 139° Southeast 399 459 17,700 -1,800 Descending Washington Center
11:50PM 36.7567 -79.3381 137° Southeast 399 459 15,900 -1,740 Descending Washington Center
11:51PM 36.6714 -79.2692 147° Southeast 388 447 14,300 -1,500 Descending Washington Center
11:52PM 36.5831 -79.2211 156° South 356 410 12,900 -1,620 Descending Washington Center
11:53PM 36.4889 -79.1625 153° Southeast 344 396 11,100 -1,800 Descending Washington Center
11:53PM 36.4661 -79.1511 158° South 345 397 10,700 -1,440 Descending Washington Center
11:54PM 36.4600 -79.1481 158° South 345 397 10,600 -840 Descending Washington Center
11:54PM 36.4131 -79.1175 152° Southeast 344 396 10,100 -600 Descending Washington Center
11:55PM 36.3781 -79.0953 153° Southeast 341 392 10,000 -600 Descending Washington Center
11:55PM 36.3272 -79.0519 146° Southeast 332 382 9,500 -1,020 Descending Washington Center
11:56PM 36.2967 -79.0300 150° Southeast 320 368 9,000 -1,440 Descending Washington Center
11:56PM 36.2539 -78.9894 143° Southeast 321 369 8,100 -1,740 Descending Washington Center
11:57PM 36.2275 -78.9678 146° Southeast 306 352 7,300 -1,980 Descending Washington Center
11:57PM 36.1867 -78.9325 145° Southeast 305 351 6,200 -1,680 Descending Washington Center
11:58PM 36.1622 -78.9158 151° Southeast 275 316 5,600 -1,080 Descending Washington Center
11:58PM 36.1378 -78.8944 145° Southeast 285 328 5,100 -1,320 Descending Washington Center
11:59PM 36.1008 -78.8672 149° Southeast 253 291 4,300 -1,380 Descending Washington Center
11:59PM 36.0744 -78.8428 143° Southeast 267 307 3,800 -1,140 Descending Washington Center
12:00AM 36.0436 -78.8186 148° Southeast 251 289 3,200 -1,020 Descending Washington Center
12:00AM 36.0153 -78.7942 145° Southeast 257 296 2,800 -960 Descending Washington Center
12:01AM 35.9844 -78.7725 150° Southeast 246 283 2,300 -840 Descending Washington Center
12:01AM 35.9619 -78.7511 142° Southeast 244 281 2,000 -300 Descending Washington Center
12:02AM 35.9394 -78.7347 149° Southeast 190 219 2,000 -300 Level Washington Center
12:02AM 35.9167 -78.7314 173° South 211 243 1,700 -720 Descending Washington Center
12:03AM 35.9036 -78.7486 227° Southwest 114 131 1,300 -720 Descending Washington Center
12:03AM 35.8950 -78.7611 230° Southwest 127 146 1,000 -720 Descending Washington Center
12:04AM 35.8800 -78.7811 227° Southwest 113 130 600 -840 Descending Washington Center
12:06AM 35.8776 -78.7875 North  Level Estimated